Patuxent River, Maryland
Current Conditions -  °F | °C
As of 3:52 AM on Thursday 23 Oct 2014 (Local Time) from KNHK Reporting Station
Overcast Overcast  
Wind Chill: 53°   Ceiling: 3400
Heat Index: 53°   Visibility: 10mi
Dew Point: 43°   Wind: 17mph
Humidity: 69%   Direction: 310°NW
Pressure: 29.83"   Gusts: 28mph
Location:  38.28°N, 76.4°W
Report Text: KNHK 230752Z AUTO 31015G24KT 10SM BKN034 OVC041 12/06 A2983 RMK AO2 SLP102 T01170061
Loading
Personal Weather Stations






























Interactive Weather Map
Tropical Storm Tracking
New forecast layout! Learn more

10-Day Weather Forecast

Advertisements
Track Severe Weather on mobile